createdAt,value
2023-04-07T00:00:36.866Z,46.8069
2023-04-07T00:01:38.522Z,46.7593
2023-04-07T00:02:41.328Z,46.6447
2023-04-07T00:03:41.277Z,46.5574
2023-04-07T00:04:42.974Z,46.5660
2023-04-07T00:05:44.097Z,46.5430
2023-04-07T00:06:45.528Z,46.5533
2023-04-07T00:07:55.992Z,46.5038
2023-04-07T00:08:48.412Z,47.1670
2023-04-07T00:09:49.987Z,48.2564
2023-04-07T00:10:51.434Z,49.5475
2023-04-07T00:11:52.774Z,49.9543
2023-04-07T00:12:54.239Z,49.8695
2023-04-07T00:13:55.985Z,49.3463
2023-04-07T00:14:57.162Z,48.8504
2023-04-07T00:15:58.633Z,48.8967
2023-04-07T00:16:59.999Z,49.0863
2023-04-07T00:18:01.560Z,48.7927
2023-04-07T00:19:02.908Z,48.3181
2023-04-07T00:20:04.369Z,48.1416
2023-04-07T00:21:05.781Z,47.9945
2023-04-07T00:22:07.228Z,47.8534
2023-04-07T00:23:08.665Z,47.6726
2023-04-07T00:24:10.323Z,47.6278
2023-04-07T00:25:11.518Z,47.3672
2023-04-07T00:26:12.992Z,46.7918
2023-04-07T00:27:14.470Z,46.5007
2023-04-07T00:28:15.897Z,46.4204
2023-04-07T00:29:17.312Z,46.4739
2023-04-07T00:30:18.811Z,46.5874
2023-04-07T00:31:20.230Z,46.6051
2023-04-07T00:32:21.650Z,46.5689
2023-04-07T00:33:23.089Z,46.6587
2023-04-07T00:34:24.534Z,48.3573
2023-04-07T00:35:26.042Z,49.5979
2023-04-07T00:36:27.530Z,49.9477
2023-04-07T00:37:28.867Z,49.8929
2023-04-07T00:38:30.398Z,49.5751
2023-04-07T00:39:31.724Z,49.0877
2023-04-07T00:40:33.254Z,49.0839
2023-04-07T00:41:34.767Z,48.9416
2023-04-07T00:42:36.071Z,48.8486
2023-04-07T00:43:37.528Z,48.2315
2023-04-07T00:44:39.047Z,47.9757
2023-04-07T00:45:40.611Z,48.0146
2023-04-07T00:46:42.865Z,47.8906
2023-04-07T00:47:43.507Z,47.6548
2023-04-07T00:48:44.954Z,47.6807
2023-04-07T00:49:46.320Z,47.4988
2023-04-07T00:50:47.843Z,47.0197
2023-04-07T00:51:49.223Z,46.9066
2023-04-07T00:52:50.681Z,46.8490
2023-04-07T00:53:52.089Z,46.9115
2023-04-07T00:54:53.509Z,46.8548
2023-04-07T00:55:54.932Z,46.8548
2023-04-07T00:56:56.465Z,46.7667
2023-04-07T00:57:57.837Z,46.6262
2023-04-07T00:58:59.264Z,47.5929
2023-04-07T01:00:00.689Z,49.5031
2023-04-07T01:01:02.146Z,50.6946
2023-04-07T01:02:03.790Z,50.7023
2023-04-07T01:03:05.278Z,50.4532
2023-04-07T01:04:06.581Z,50.1978
2023-04-07T01:05:08.018Z,49.7505
2023-04-07T01:06:09.449Z,49.7105
2023-04-07T01:07:10.846Z,49.2733
2023-04-07T01:08:12.266Z,49.4414
2023-04-07T01:09:13.710Z,48.6835
2023-04-07T01:10:15.190Z,48.4062
2023-04-07T01:11:16.741Z,48.5008
2023-04-07T01:12:18.112Z,48.4679
2023-04-07T01:13:19.607Z,48.2528
2023-04-07T01:14:20.974Z,48.0921
2023-04-07T01:15:22.407Z,48.1093
2023-04-07T01:16:23.888Z,47.6616
2023-04-07T01:17:25.361Z,47.4006
2023-04-07T01:18:26.748Z,47.3061
2023-04-07T01:19:28.218Z,47.2387
2023-04-07T01:20:29.554Z,47.2694
2023-04-07T01:21:31.104Z,47.2789
2023-04-07T01:22:32.554Z,47.2666
2023-04-07T01:23:33.947Z,47.1668
2023-04-07T01:24:35.331Z,47.0893
2023-04-07T01:25:36.774Z,47.5294
2023-04-07T01:26:38.222Z,48.9095
2023-04-07T01:27:39.678Z,50.2738
2023-04-07T01:28:41.126Z,50.6271
2023-04-07T01:29:42.518Z,50.5132
2023-04-07T01:30:44.052Z,50.2116
2023-04-07T01:31:45.481Z,49.7556
2023-04-07T01:32:46.956Z,49.7773
2023-04-07T01:33:48.401Z,49.6252
2023-04-07T01:34:49.815Z,49.2703
2023-04-07T01:35:51.204Z,48.5743
2023-04-07T01:36:52.709Z,48.5497
2023-04-07T01:37:54.407Z,48.5641
2023-04-07T01:38:55.567Z,48.3312
2023-04-07T01:39:57.052Z,48.0990
2023-04-07T01:40:58.437Z,48.1054
2023-04-07T01:41:59.875Z,47.6966
2023-04-07T01:43:01.373Z,47.2810
2023-04-07T01:44:02.817Z,47.0020
2023-04-07T01:45:04.257Z,47.1866
2023-04-07T01:46:05.657Z,47.1797
2023-04-07T01:47:07.147Z,47.1698
2023-04-07T01:48:08.709Z,47.1025
2023-04-07T01:49:09.986Z,46.9267
2023-04-07T01:50:12.320Z,46.5712
2023-04-07T01:51:12.885Z,46.3287
2023-04-07T01:52:14.331Z,46.2139
2023-04-07T01:53:15.853Z,46.2438
2023-04-07T01:54:17.210Z,47.6691
2023-04-07T01:55:18.683Z,49.6646
2023-04-07T01:56:20.170Z,49.5621
2023-04-07T01:57:21.605Z,49.3316
2023-04-07T01:58:23.048Z,49.0604
2023-04-07T01:59:24.493Z,48.8560
2023-04-07T02:00:26.862Z,48.6642
2023-04-07T02:01:27.449Z,48.6000
2023-04-07T02:02:28.826Z,47.9726
2023-04-07T02:03:30.290Z,48.0063
2023-04-07T02:04:31.655Z,48.0268
2023-04-07T02:05:33.091Z,47.8651
2023-04-07T02:06:34.557Z,47.7113
2023-04-07T02:07:36.012Z,47.4124
2023-04-07T02:08:37.484Z,47.3741
2023-04-07T02:09:38.921Z,46.7422
2023-04-07T02:10:40.342Z,46.4615
2023-04-07T02:11:41.777Z,46.5233
2023-04-07T02:12:43.236Z,46.5308
2023-04-07T02:13:44.737Z,46.5720
2023-04-07T02:14:46.226Z,49.0520
2023-04-07T02:15:47.692Z,50.2723
2023-04-07T02:16:49.224Z,50.5449
2023-04-07T02:17:50.549Z,50.2157
2023-04-07T02:18:52.005Z,49.9899
2023-04-07T02:19:53.416Z,49.6581
2023-04-07T02:20:54.882Z,49.2955
2023-04-07T02:21:56.172Z,49.1986
2023-04-07T02:22:57.729Z,49.0076
2023-04-07T02:23:59.174Z,48.4129
2023-04-07T02:25:00.601Z,48.2437
2023-04-07T02:26:01.986Z,48.2749
2023-04-07T02:27:03.438Z,48.0775
2023-04-07T02:28:04.888Z,47.8042
2023-04-07T02:29:06.346Z,47.5875
2023-04-07T02:30:07.765Z,47.4842
2023-04-07T02:31:09.213Z,46.8743
2023-04-07T02:32:10.703Z,46.5652
2023-04-07T02:33:12.133Z,46.6564
2023-04-07T02:34:13.612Z,46.6586
2023-04-07T02:35:15.010Z,46.6250
2023-04-07T02:36:16.461Z,47.7438
2023-04-07T02:37:17.939Z,49.7178
2023-04-07T02:38:19.235Z,50.3749
2023-04-07T02:39:20.770Z,50.4398
2023-04-07T02:40:22.287Z,50.2000
2023-04-07T02:41:23.635Z,49.9991
2023-04-07T02:42:25.069Z,49.6584
2023-04-07T02:43:26.516Z,49.4118
2023-04-07T02:44:28.000Z,49.0496
2023-04-07T02:45:29.355Z,49.0330
2023-04-07T02:46:31.091Z,48.4198
2023-04-07T02:47:32.399Z,48.2937
2023-04-07T02:48:33.720Z,48.2955
2023-04-07T02:49:35.241Z,48.1107
2023-04-07T02:50:36.691Z,47.8543
2023-04-07T02:51:38.065Z,47.6156
2023-04-07T02:52:40.331Z,47.5409
2023-04-07T02:53:40.928Z,47.0361
2023-04-07T02:54:42.374Z,46.5001
2023-04-07T02:55:43.809Z,45.4944
2023-04-07T02:56:45.257Z,44.5654
2023-04-07T02:57:46.785Z,44.0680
2023-04-07T02:58:48.246Z,43.5424
2023-04-07T02:59:49.675Z,43.2835
2023-04-07T03:00:51.097Z,43.3169
2023-04-07T03:01:52.556Z,43.5595
2023-04-07T03:02:54.089Z,43.6824
2023-04-07T03:03:55.833Z,43.7657
2023-04-07T03:04:56.874Z,43.7726
2023-04-07T03:05:58.307Z,43.5421
2023-04-07T03:06:59.813Z,43.3166
2023-04-07T03:08:01.153Z,43.1872
2023-04-07T03:09:02.588Z,43.1782
2023-04-07T03:10:04.035Z,43.0631
2023-04-07T03:11:06.342Z,42.8565
2023-04-07T03:12:06.977Z,42.7045
2023-04-07T03:13:08.392Z,42.7499
2023-04-07T03:14:09.829Z,42.7988
2023-04-07T03:15:11.253Z,42.8194
2023-04-07T03:16:12.747Z,44.8606
2023-04-07T03:17:14.208Z,46.1862
2023-04-07T03:18:15.649Z,45.6664
2023-04-07T03:19:17.087Z,45.2266
2023-04-07T03:20:18.546Z,45.1521
2023-04-07T03:21:19.969Z,45.1977
2023-04-07T03:22:21.388Z,45.2773
2023-04-07T03:23:22.893Z,45.0359
2023-04-07T03:24:24.246Z,44.6953
2023-04-07T03:25:25.773Z,44.5199
2023-04-07T03:26:27.187Z,44.3593
2023-04-07T03:27:28.585Z,44.4039
2023-04-07T03:28:30.938Z,44.5306
2023-04-07T03:29:31.510Z,43.8806
2023-04-07T03:30:32.951Z,43.6682
2023-04-07T03:31:34.329Z,43.5199
2023-04-07T03:32:35.872Z,43.5110
2023-04-07T03:33:37.284Z,43.5792
2023-04-07T03:34:38.691Z,43.6112
2023-04-07T03:35:40.189Z,43.5120
2023-04-07T03:36:41.613Z,43.4835
2023-04-07T03:37:42.977Z,43.3789
2023-04-07T03:38:44.360Z,43.3295
2023-04-07T03:39:45.892Z,43.2375
2023-04-07T03:40:47.413Z,43.2116
2023-04-07T03:41:48.847Z,43.1388
2023-04-07T03:42:50.228Z,43.1192
2023-04-07T03:43:51.843Z,42.8312
2023-04-07T03:44:53.113Z,42.5963
2023-04-07T03:45:54.645Z,42.2893
2023-04-07T03:46:56.054Z,42.2955
2023-04-07T03:47:57.496Z,42.2175
2023-04-07T03:48:58.840Z,42.2253
2023-04-07T03:50:00.324Z,42.3448
2023-04-07T03:51:01.788Z,42.2855
2023-04-07T03:52:03.250Z,42.1694
2023-04-07T03:53:04.704Z,42.1802
2023-04-07T03:54:06.071Z,42.2365
2023-04-07T03:55:07.507Z,42.1204
2023-04-07T03:56:09.007Z,42.0973
2023-04-07T03:57:10.466Z,41.9651
2023-04-07T03:58:11.855Z,41.9744
2023-04-07T03:59:13.378Z,41.9299
2023-04-07T04:00:14.732Z,41.8762
2023-04-07T04:01:16.211Z,41.8797
2023-04-07T04:02:17.727Z,41.8150
2023-04-07T04:03:19.218Z,41.6117
2023-04-07T04:04:20.586Z,41.5392
2023-04-07T04:05:21.958Z,41.5237
2023-04-07T04:06:23.388Z,41.5717
2023-04-07T04:07:24.852Z,41.7161
2023-04-07T04:08:26.272Z,44.5015
2023-04-07T04:09:27.750Z,45.3061
2023-04-07T04:10:29.161Z,44.6063
2023-04-07T04:11:30.646Z,44.4220
2023-04-07T04:12:32.084Z,44.3325
2023-04-07T04:13:33.557Z,44.3503
2023-04-07T04:14:34.986Z,44.5304
2023-04-07T04:15:36.440Z,44.4917
2023-04-07T04:16:37.762Z,43.9776
2023-04-07T04:17:39.333Z,43.8303
2023-04-07T04:18:40.750Z,43.7965
2023-04-07T04:19:42.047Z,43.8440
2023-04-07T04:20:43.574Z,43.8265
2023-04-07T04:21:45.062Z,43.6205
2023-04-07T04:22:46.512Z,43.3242
2023-04-07T04:23:47.924Z,43.3379
2023-04-07T04:24:49.445Z,43.4640
2023-04-07T04:25:50.850Z,43.4511
2023-04-07T04:26:52.258Z,43.4688
2023-04-07T04:27:53.806Z,43.5628
2023-04-07T04:28:55.151Z,43.5420
2023-04-07T04:29:56.581Z,43.2247
2023-04-07T04:30:58.032Z,43.1150
2023-04-07T04:31:59.535Z,42.9933
2023-04-07T04:33:00.921Z,42.9744
2023-04-07T04:34:02.401Z,42.8712
2023-04-07T04:35:03.771Z,42.8318
2023-04-07T04:36:05.072Z,42.8154
2023-04-07T04:37:06.746Z,42.7164
2023-04-07T04:38:09.033Z,42.4612
2023-04-07T04:39:09.961Z,42.4088
2023-04-07T04:40:11.034Z,42.3712
2023-04-07T04:41:12.470Z,42.2348
2023-04-07T04:42:13.848Z,42.2656
2023-04-07T04:43:15.294Z,42.3448
2023-04-07T04:44:16.737Z,42.2109
2023-04-07T04:45:18.142Z,42.2642
2023-04-07T04:46:19.689Z,42.1918
2023-04-07T04:47:21.283Z,42.0792
2023-04-07T04:48:22.655Z,41.9214
2023-04-07T04:49:24.504Z,41.8343
2023-04-07T04:50:25.454Z,41.8544
2023-04-07T04:51:26.981Z,41.8288
2023-04-07T04:52:28.397Z,41.8908
2023-04-07T04:53:29.871Z,42.0035
2023-04-07T04:54:31.293Z,41.7066
2023-04-07T04:55:32.700Z,41.6540
2023-04-07T04:56:34.254Z,41.6440
2023-04-07T04:57:35.687Z,41.7412
2023-04-07T04:58:37.068Z,41.6749
2023-04-07T04:59:38.469Z,41.5739
2023-04-07T05:00:39.956Z,41.4868
2023-04-07T05:01:42.110Z,41.4978
2023-04-07T05:02:42.841Z,41.4225
2023-04-07T05:03:44.598Z,41.2794
2023-04-07T05:04:45.828Z,42.3399
2023-04-07T05:05:47.158Z,43.0099
2023-04-07T05:06:48.541Z,44.7054
2023-04-07T05:07:50.039Z,44.8495
2023-04-07T05:08:51.473Z,44.8698
2023-04-07T05:09:52.905Z,44.7852
2023-04-07T05:10:54.320Z,44.8446
2023-04-07T05:11:55.753Z,44.8788
2023-04-07T05:12:57.199Z,44.8716
2023-04-07T05:13:58.637Z,44.6814
2023-04-07T05:15:00.081Z,44.7053
2023-04-07T05:16:01.559Z,44.6489
2023-04-07T05:17:02.934Z,44.6255
2023-04-07T05:18:04.363Z,44.6524
2023-04-07T05:19:05.824Z,44.5831
2023-04-07T05:20:07.226Z,44.3383
2023-04-07T05:21:08.658Z,44.2319
2023-04-07T05:22:10.100Z,44.2750
2023-04-07T05:23:11.641Z,44.0905
2023-04-07T05:24:13.018Z,44.0972
2023-04-07T05:25:14.493Z,44.2675
2023-04-07T05:26:15.894Z,44.1108
2023-04-07T05:27:17.346Z,43.9209
2023-04-07T05:28:18.791Z,43.9640
2023-04-07T05:29:20.296Z,43.9381
2023-04-07T05:30:21.678Z,43.8257
2023-04-07T05:31:23.129Z,43.9099
2023-04-07T05:32:24.575Z,43.8744
2023-04-07T05:33:25.891Z,43.6830
2023-04-07T05:34:28.390Z,43.7679
2023-04-07T05:35:28.836Z,43.6814
2023-04-07T05:36:30.397Z,43.5517
2023-04-07T05:37:31.735Z,43.6696
2023-04-07T05:38:33.069Z,43.8489
2023-04-07T05:39:34.633Z,43.5875
2023-04-07T05:40:37.592Z,43.5600
2023-04-07T05:41:37.498Z,43.5531
2023-04-07T05:42:38.936Z,43.4355
2023-04-07T05:43:40.341Z,43.5281
2023-04-07T05:44:41.744Z,43.5525
2023-04-07T05:45:43.318Z,43.4655
2023-04-07T05:46:45.488Z,43.4330
2023-04-07T05:47:46.184Z,43.4771
2023-04-07T05:48:47.573Z,43.2820
2023-04-07T05:49:49.010Z,43.2244
2023-04-07T05:50:50.437Z,43.3954
2023-04-07T05:51:51.881Z,43.2888
2023-04-07T05:52:53.293Z,43.0548
2023-04-07T05:53:54.751Z,43.1948
2023-04-07T05:54:56.249Z,43.0320
2023-04-07T05:55:57.670Z,42.8802
2023-04-07T05:56:59.146Z,43.0264
2023-04-07T05:58:00.461Z,43.0119
2023-04-07T05:59:01.924Z,42.7149
2023-04-07T06:00:03.358Z,42.5911
2023-04-07T06:01:04.721Z,42.6616
2023-04-07T06:02:06.203Z,42.7631
2023-04-07T06:03:07.846Z,42.9470
2023-04-07T06:04:09.025Z,42.8646
2023-04-07T06:05:10.577Z,42.5293
2023-04-07T06:06:11.903Z,42.4836
2023-04-07T06:07:13.343Z,42.4917
2023-04-07T06:08:14.807Z,42.3477
2023-04-07T06:09:16.200Z,42.4310
2023-04-07T06:10:18.453Z,42.6675
2023-04-07T06:11:19.133Z,42.4226
2023-04-07T06:12:20.567Z,42.3892
2023-04-07T06:13:22.010Z,42.3541
2023-04-07T06:14:23.396Z,42.2877
2023-04-07T06:15:25.029Z,42.3280
2023-04-07T06:16:26.300Z,42.2426
2023-04-07T06:17:27.731Z,42.0230
2023-04-07T06:18:29.164Z,42.1151
2023-04-07T06:19:30.604Z,42.1704
2023-04-07T06:20:32.048Z,41.8917
2023-04-07T06:21:33.464Z,41.9403
2023-04-07T06:22:34.904Z,42.1269
2023-04-07T06:23:36.295Z,42.2791
2023-04-07T06:24:37.788Z,42.1523
2023-04-07T06:25:39.252Z,42.1204
2023-04-07T06:26:40.655Z,41.9543
2023-04-07T06:27:42.086Z,41.9948
2023-04-07T06:28:43.578Z,42.1438
2023-04-07T06:29:45.014Z,42.0884
2023-04-07T06:30:46.520Z,42.0887
2023-04-07T06:31:48.244Z,42.1744
2023-04-07T06:32:49.365Z,41.9221
2023-04-07T06:33:51.074Z,41.9641
2023-04-07T06:34:52.173Z,42.1463
2023-04-07T06:35:53.605Z,42.0723
2023-04-07T06:36:55.903Z,42.0162
2023-04-07T06:37:56.479Z,42.0888
2023-04-07T06:38:57.913Z,41.8329
2023-04-07T06:39:59.393Z,41.9407
2023-04-07T06:41:00.911Z,42.2098
2023-04-07T06:42:02.243Z,42.0026
2023-04-07T06:43:03.660Z,42.0118
2023-04-07T06:44:05.509Z,41.9490
2023-04-07T06:45:06.521Z,41.7424
2023-04-07T06:46:08.142Z,41.9143
2023-04-07T06:47:09.691Z,41.9677
2023-04-07T06:48:11.075Z,41.6927
2023-04-07T06:49:12.457Z,41.4072
2023-04-07T06:50:13.935Z,41.3991
2023-04-07T06:51:15.388Z,41.3636
2023-04-07T06:52:16.809Z,41.5005
2023-04-07T06:53:18.260Z,41.7391
2023-04-07T06:54:19.738Z,41.7449
2023-04-07T06:55:21.188Z,41.5913
2023-04-07T06:56:23.437Z,41.5455
2023-04-07T06:57:26.919Z,41.5886
2023-04-07T06:58:25.432Z,41.7143
2023-04-07T06:59:26.837Z,41.8298
2023-04-07T07:00:28.272Z,41.8528
2023-04-07T07:01:30.219Z,41.8279
2023-04-07T07:02:31.401Z,41.8831
2023-04-07T07:03:32.569Z,41.6040
2023-04-07T07:04:34.135Z,41.6519
2023-04-07T07:05:35.787Z,41.7787
2023-04-07T07:06:36.993Z,41.8242
2023-04-07T07:07:38.371Z,41.7699
2023-04-07T07:08:39.848Z,41.8372
2023-04-07T07:09:41.230Z,41.5459
2023-04-07T07:10:42.655Z,41.5845
2023-04-07T07:11:44.195Z,41.7570
2023-04-07T07:12:45.620Z,41.7451
2023-04-07T07:13:47.228Z,41.6173
2023-04-07T07:14:48.486Z,41.8078
2023-04-07T07:15:49.970Z,41.4209
2023-04-07T07:16:51.578Z,41.3667
2023-04-07T07:17:52.841Z,41.6225
2023-04-07T07:18:54.200Z,41.7447
2023-04-07T07:19:55.699Z,41.6524
2023-04-07T07:20:57.079Z,41.4560
2023-04-07T07:21:58.625Z,41.4153
2023-04-07T07:22:59.831Z,41.6817
2023-04-07T07:24:01.436Z,41.6522
2023-04-07T07:25:02.876Z,41.4836
2023-04-07T07:26:04.319Z,41.5686
2023-04-07T07:27:05.734Z,41.3848
2023-04-07T07:28:07.157Z,41.3826
2023-04-07T07:29:08.526Z,41.5681
2023-04-07T07:30:10.049Z,41.5553
2023-04-07T07:31:11.477Z,41.2859
2023-04-07T07:32:12.951Z,41.2970
2023-04-07T07:33:14.344Z,41.4440
2023-04-07T07:34:15.770Z,41.6799
2023-04-07T07:35:17.224Z,41.9664
2023-04-07T07:36:18.619Z,42.3667
2023-04-07T07:37:20.935Z,42.0396
2023-04-07T07:38:21.498Z,41.9948
2023-04-07T07:39:23.077Z,41.8642
2023-04-07T07:40:24.374Z,41.8979
2023-04-07T07:41:26.086Z,42.1027
2023-04-07T07:42:27.280Z,42.1750
2023-04-07T07:43:28.686Z,42.1379
2023-04-07T07:44:32.437Z,42.2212
2023-04-07T07:45:31.545Z,41.9333
2023-04-07T07:46:33.048Z,42.0700
2023-04-07T07:47:34.536Z,42.1217
2023-04-07T07:48:35.881Z,42.1187
2023-04-07T07:49:37.302Z,42.0821
2023-04-07T07:50:38.762Z,41.8255
2023-04-07T07:51:40.158Z,41.8794
2023-04-07T07:52:42.089Z,42.0726
2023-04-07T07:53:43.090Z,42.1122
2023-04-07T07:54:44.525Z,42.1750
2023-04-07T07:55:45.943Z,42.1002
2023-04-07T07:56:47.468Z,41.9220
2023-04-07T07:57:48.863Z,42.0779
2023-04-07T07:58:50.371Z,42.1178
2023-04-07T07:59:51.798Z,42.3154
2023-04-07T08:00:53.262Z,42.4423
2023-04-07T08:01:54.643Z,42.1826
2023-04-07T08:02:56.220Z,41.9898
2023-04-07T08:03:57.567Z,42.2550
2023-04-07T08:04:59.046Z,42.4332
2023-04-07T08:06:00.324Z,42.2536
2023-04-07T08:07:01.887Z,42.2625
2023-04-07T08:08:03.565Z,42.0208
2023-04-07T08:09:04.843Z,42.1138
2023-04-07T08:10:06.221Z,42.2209
2023-04-07T08:11:07.584Z,41.8669
2023-04-07T08:12:09.094Z,41.6993
2023-04-07T08:13:10.604Z,41.7281
2023-04-07T08:14:11.927Z,41.7894
2023-04-07T08:15:13.212Z,41.8608
2023-04-07T08:16:15.004Z,41.9852
2023-04-07T08:17:16.227Z,41.9466
2023-04-07T08:18:18.553Z,42.0475
2023-04-07T08:19:19.115Z,41.9535
2023-04-07T08:20:20.595Z,41.9058
2023-04-07T08:21:22.052Z,42.1371
2023-04-07T08:22:23.375Z,42.0641
2023-04-07T08:23:24.918Z,41.8871
2023-04-07T08:24:26.272Z,42.0181
2023-04-07T08:25:27.597Z,41.8519
2023-04-07T08:26:29.216Z,41.6362
2023-04-07T08:27:30.568Z,41.8692
2023-04-07T08:28:32.230Z,41.7475
2023-04-07T08:29:33.497Z,41.6445
2023-04-07T08:30:34.901Z,41.8471
2023-04-07T08:31:36.398Z,41.5652
2023-04-07T08:32:37.810Z,41.5394
2023-04-07T08:33:39.244Z,41.6568
2023-04-07T08:34:40.692Z,41.5202
2023-04-07T08:35:42.108Z,41.5148
2023-04-07T08:36:44.142Z,41.5058
2023-04-07T08:37:45.030Z,41.3453
2023-04-07T08:38:46.426Z,41.4491
2023-04-07T08:39:47.765Z,41.6100
2023-04-07T08:40:49.353Z,41.4773
2023-04-07T08:41:50.766Z,41.4567
2023-04-07T08:42:52.159Z,41.3821
2023-04-07T08:43:53.579Z,41.1297
2023-04-07T08:44:54.998Z,41.3100
2023-04-07T08:45:56.471Z,41.4305
2023-04-07T08:46:57.932Z,41.2994
2023-04-07T08:47:59.468Z,41.2316
2023-04-07T08:49:00.775Z,40.9771
2023-04-07T08:50:02.305Z,41.0051
2023-04-07T08:51:03.807Z,41.1183
2023-04-07T08:52:05.810Z,40.9916
2023-04-07T08:53:07.459Z,40.9382
2023-04-07T08:54:08.051Z,40.9434
2023-04-07T08:55:09.486Z,40.8432
2023-04-07T08:56:10.941Z,40.8118
2023-04-07T08:57:12.359Z,40.9496
2023-04-07T08:58:13.806Z,40.5460
2023-04-07T08:59:15.371Z,40.4542
2023-04-07T09:00:17.453Z,40.3078
2023-04-07T09:01:18.196Z,40.1620
2023-04-07T09:02:19.645Z,40.1832
2023-04-07T09:03:21.142Z,40.3761
2023-04-07T09:04:22.379Z,40.1654
2023-04-07T09:05:23.898Z,40.2365
2023-04-07T09:06:25.320Z,40.0692
2023-04-07T09:07:26.823Z,39.8747
2023-04-07T09:08:28.223Z,39.8525
2023-04-07T09:09:29.729Z,39.7464
2023-04-07T09:10:31.200Z,39.7901
2023-04-07T09:11:32.639Z,39.7005
2023-04-07T09:12:34.094Z,39.5109
2023-04-07T09:13:35.436Z,39.4045
2023-04-07T09:14:36.943Z,39.5213
2023-04-07T09:15:38.944Z,39.1893
2023-04-07T09:16:39.876Z,39.3369
2023-04-07T09:17:41.339Z,39.2584
2023-04-07T09:18:42.723Z,39.0074
2023-04-07T09:19:44.060Z,38.9752
2023-04-07T09:20:45.716Z,39.0240
2023-04-07T09:21:46.846Z,38.8367
2023-04-07T09:22:48.383Z,38.9946
2023-04-07T09:23:50.212Z,38.6566
2023-04-07T09:24:51.267Z,38.5593
2023-04-07T09:25:52.759Z,38.7732
2023-04-07T09:26:54.170Z,38.5809
2023-04-07T09:27:55.584Z,38.4715
2023-04-07T09:28:56.955Z,38.6627
2023-04-07T09:29:58.438Z,38.4081
2023-04-07T09:30:59.956Z,38.2809
2023-04-07T09:32:01.402Z,38.4839
2023-04-07T09:33:02.818Z,38.2300
2023-04-07T09:34:04.222Z,38.3438
2023-04-07T09:35:05.869Z,38.5154
2023-04-07T09:36:07.154Z,38.1878
2023-04-07T09:37:08.530Z,38.1209
2023-04-07T09:38:10.025Z,38.2633
2023-04-07T09:39:11.396Z,38.0904
2023-04-07T09:40:12.800Z,38.3682
2023-04-07T09:41:14.301Z,38.4165
2023-04-07T09:42:15.703Z,38.1015
2023-04-07T09:43:17.094Z,38.0279
2023-04-07T09:44:18.598Z,38.2987
2023-04-07T09:45:33.184Z,37.9959
2023-04-07T09:46:21.603Z,38.2170
2023-04-07T09:47:22.834Z,38.3412
2023-04-07T09:48:24.357Z,38.0001
2023-04-07T09:49:25.733Z,37.9692
2023-04-07T09:50:27.188Z,38.1421
2023-04-07T09:51:28.719Z,37.9594
2023-04-07T09:52:30.149Z,38.1801
2023-04-07T09:53:31.589Z,38.3368
2023-04-07T09:54:32.928Z,38.0111
2023-04-07T09:55:34.412Z,37.9480
2023-04-07T09:56:35.869Z,38.0654
2023-04-07T09:57:37.222Z,37.9335
2023-04-07T09:58:38.638Z,38.1086
2023-04-07T09:59:40.102Z,38.3990
2023-04-07T10:00:41.698Z,38.1055
2023-04-07T10:01:43.224Z,38.0038
2023-04-07T10:02:44.551Z,38.1917
2023-04-07T10:03:46.317Z,38.0679
2023-04-07T10:04:47.286Z,38.2429
2023-04-07T10:05:48.821Z,38.4394
2023-04-07T10:06:50.235Z,38.2007
2023-04-07T10:07:51.535Z,38.1458
2023-04-07T10:08:53.159Z,38.4035
2023-04-07T10:09:54.567Z,38.2905
2023-04-07T10:10:55.873Z,38.4444
2023-04-07T10:11:57.471Z,38.5597
2023-04-07T10:12:58.814Z,38.3209
2023-04-07T10:14:00.293Z,38.1786
2023-04-07T10:15:01.641Z,38.2318
2023-04-07T10:16:03.192Z,38.1003
2023-04-07T10:17:04.710Z,38.4260
2023-04-07T10:18:06.109Z,38.2886
2023-04-07T10:19:07.419Z,37.9995
2023-04-07T10:20:08.973Z,38.0366
2023-04-07T10:21:10.276Z,38.1358
2023-04-07T10:22:11.765Z,38.0257
2023-04-07T10:23:13.166Z,38.3946
2023-04-07T10:24:14.505Z,38.1823
2023-04-07T10:25:16.087Z,38.0415
2023-04-07T10:26:17.480Z,38.1376
2023-04-07T10:27:18.985Z,38.1848
2023-04-07T10:28:20.365Z,37.9853
2023-04-07T10:29:21.894Z,38.3777
2023-04-07T10:30:23.344Z,38.0734
2023-04-07T10:31:24.728Z,37.8751
2023-04-07T10:32:26.751Z,37.9637
2023-04-07T10:33:27.455Z,37.8816
2023-04-07T10:34:28.976Z,37.8668
2023-04-07T10:35:30.495Z,38.1386
2023-04-07T10:36:31.904Z,37.8591
2023-04-07T10:37:33.362Z,37.7862
2023-04-07T10:38:34.749Z,37.9834
2023-04-07T10:39:36.196Z,37.8446
2023-04-07T10:40:37.707Z,37.9057
2023-04-07T10:41:39.178Z,37.9798
2023-04-07T10:42:40.591Z,37.7268
2023-04-07T10:43:42.214Z,37.6989
2023-04-07T10:44:43.282Z,37.7847
2023-04-07T10:45:44.771Z,37.5812
2023-04-07T10:46:46.222Z,37.7733
2023-04-07T10:47:48.642Z,37.7199
2023-04-07T10:48:49.091Z,37.5671
2023-04-07T10:49:50.479Z,37.5078
2023-04-07T10:50:52.071Z,37.5666
2023-04-07T10:51:53.345Z,37.3499
2023-04-07T10:52:54.895Z,37.7635
2023-04-07T10:53:56.295Z,37.7517
2023-04-07T10:54:57.755Z,37.5155
2023-04-07T10:55:59.197Z,37.4932
2023-04-07T10:57:00.545Z,37.5658
2023-04-07T10:58:02.119Z,37.3891
2023-04-07T10:59:03.532Z,37.7541
2023-04-07T11:00:04.939Z,37.6378
2023-04-07T11:01:06.306Z,37.3859
2023-04-07T11:02:07.840Z,37.4984
2023-04-07T11:03:09.378Z,37.5069
2023-04-07T11:04:10.709Z,37.3241
2023-04-07T11:05:12.083Z,37.6912
2023-04-07T11:06:13.477Z,37.5059
2023-04-07T11:07:15.024Z,37.3197
2023-04-07T11:08:16.472Z,37.4401
2023-04-07T11:09:17.859Z,37.4245
2023-04-07T11:10:20.196Z,37.2806
2023-04-07T11:11:20.766Z,37.6784
2023-04-07T11:12:22.182Z,37.4019
2023-04-07T11:13:23.682Z,37.3181
2023-04-07T11:14:24.978Z,37.4230
2023-04-07T11:15:26.444Z,37.3972
2023-04-07T11:16:27.977Z,37.4864
2023-04-07T11:17:29.381Z,37.6828
2023-04-07T11:18:30.816Z,37.3810
2023-04-07T11:19:32.224Z,37.4590
2023-04-07T11:20:33.681Z,37.6152
2023-04-07T11:21:35.086Z,37.4150
2023-04-07T11:22:36.521Z,37.5432
2023-04-07T11:23:38.238Z,37.8257
2023-04-07T11:24:39.466Z,37.5597
2023-04-07T11:25:40.855Z,37.5763
2023-04-07T11:26:42.343Z,37.6669
2023-04-07T11:27:43.756Z,37.4702
2023-04-07T11:28:45.283Z,37.6556
2023-04-07T11:29:46.610Z,37.6284
2023-04-07T11:30:48.100Z,37.4538
2023-04-07T11:31:49.545Z,37.4015
2023-04-07T11:32:50.905Z,37.5191
2023-04-07T11:33:52.374Z,37.3143
2023-04-07T11:34:53.801Z,37.6854
2023-04-07T11:35:55.239Z,37.5827
2023-04-07T11:36:56.759Z,37.3834
2023-04-07T11:37:58.128Z,37.4711
2023-04-07T11:38:59.636Z,37.4953
2023-04-07T11:40:00.995Z,37.3515
2023-04-07T11:41:02.526Z,37.7585
2023-04-07T11:42:03.903Z,37.6017
2023-04-07T11:43:05.299Z,37.3971
2023-04-07T11:44:06.826Z,37.4594
2023-04-07T11:45:08.682Z,37.5173
2023-04-07T11:46:09.591Z,37.4154
2023-04-07T11:47:11.111Z,37.8348
2023-04-07T11:48:12.494Z,37.7073
2023-04-07T11:49:14.541Z,37.4908
2023-04-07T11:50:15.335Z,37.5084
2023-04-07T11:51:16.807Z,37.4665
2023-04-07T11:52:18.239Z,37.3776
2023-04-07T11:53:19.829Z,37.7913
2023-04-07T11:54:21.160Z,37.6651
2023-04-07T11:55:22.617Z,37.5301
2023-04-07T11:56:24.030Z,37.6579
2023-04-07T11:57:25.493Z,37.6338
2023-04-07T11:58:26.871Z,37.4992
2023-04-07T11:59:28.389Z,37.6702
2023-04-07T12:00:29.722Z,37.4686
2023-04-07T12:01:31.215Z,37.5491
2023-04-07T12:02:32.825Z,37.7520
2023-04-07T12:03:34.303Z,37.5751
2023-04-07T12:04:35.659Z,37.7286
2023-04-07T12:05:37.046Z,37.9733
2023-04-07T12:06:38.485Z,37.7001
2023-04-07T12:07:39.905Z,37.6195
2023-04-07T12:08:41.350Z,37.6897
2023-04-07T12:09:42.758Z,37.5621
2023-04-07T12:10:44.515Z,37.8843
2023-04-07T12:11:46.596Z,37.9939
2023-04-07T12:12:47.041Z,37.7797
2023-04-07T12:13:48.609Z,37.7826
2023-04-07T12:14:50.033Z,37.8298
2023-04-07T12:15:51.449Z,37.7329
2023-04-07T12:16:53.068Z,38.1482
2023-04-07T12:17:54.305Z,38.2191
2023-04-07T12:18:55.750Z,37.9975
2023-04-07T12:19:57.208Z,37.9096
2023-04-07T12:20:58.653Z,37.9698
2023-04-07T12:22:00.021Z,37.8752
2023-04-07T12:23:01.459Z,38.3111